createdAt,value
2023-04-25T00:01:06.932Z,19.75
2023-04-25T00:03:36.456Z,19.67
2023-04-25T00:06:05.148Z,19.42
2023-04-25T00:08:33.387Z,19.38
2023-04-25T00:11:02.849Z,17.58
2023-04-25T00:13:31.079Z,17.88
2023-04-25T00:15:59.328Z,18.38
2023-04-25T00:18:29.653Z,18.58
2023-04-25T00:20:57.968Z,17.38
2023-04-25T00:23:26.118Z,18.95
2023-04-25T00:25:54.093Z,19.08
2023-04-25T00:28:23.768Z,16.88
2023-04-25T00:30:52.650Z,19.42
2023-04-25T00:33:20.838Z,18.40
2023-04-25T00:35:49.040Z,18.10
2023-04-25T00:38:17.599Z,18.02
2023-04-25T00:40:45.754Z,16.67
2023-04-25T00:43:13.899Z,17.17
2023-04-25T00:45:45.714Z,16.48
2023-04-25T00:48:15.772Z,17.08
2023-04-25T00:50:44.772Z,18.13
2023-04-25T00:53:12.935Z,17.17
2023-04-25T00:55:41.105Z,17.48
2023-04-25T00:58:09.158Z,16.98
2023-04-25T01:00:39.997Z,16.50
2023-04-25T01:03:11.067Z,17.15
2023-04-25T01:05:39.457Z,22.60
2023-04-25T01:08:07.454Z,22.27
2023-04-25T01:10:35.686Z,18.77
2023-04-25T01:13:03.945Z,17.73
2023-04-25T01:15:32.531Z,16.05
2023-04-25T01:18:02.230Z,17.05
2023-04-25T01:20:33.769Z,15.85
2023-04-25T01:23:04.643Z,15.93
2023-04-25T01:25:33.013Z,14.80
2023-04-25T01:28:01.058Z,15.90
2023-04-25T01:30:30.976Z,15.77
2023-04-25T01:32:59.820Z,15.45
2023-04-25T01:35:31.002Z,14.18
2023-04-25T01:37:59.510Z,14.95
2023-04-25T01:40:30.035Z,14.35
2023-04-25T01:42:59.127Z,13.77
2023-04-25T01:45:27.209Z,13.45
2023-04-25T01:47:55.548Z,13.50
2023-04-25T01:50:23.961Z,12.77
2023-04-25T01:52:52.511Z,15.88
2023-04-25T01:55:21.378Z,13.23
2023-04-25T01:58:10.151Z,14.50
2023-04-25T02:01:07.190Z,19.80
2023-04-25T02:03:43.443Z,17.33
2023-04-25T02:06:23.060Z,17.38
2023-04-25T02:08:53.582Z,16.35
2023-04-25T02:11:21.618Z,14.32
2023-04-25T02:14:20.124Z,13.82
2023-04-25T02:16:55.075Z,14.75
2023-04-25T02:19:23.335Z,13.95
2023-04-25T02:21:51.380Z,13.10
2023-04-25T02:24:19.471Z,13.77
2023-04-25T02:26:47.895Z,13.40
2023-04-25T02:29:16.199Z,12.18
2023-04-25T02:31:45.786Z,12.95
2023-04-25T02:34:14.096Z,11.73
2023-04-25T02:36:42.080Z,12.68
2023-04-25T02:39:11.245Z,12.23
2023-04-25T02:41:39.615Z,12.55
2023-04-25T02:44:07.612Z,12.57
2023-04-25T02:46:39.507Z,13.48
2023-04-25T02:49:11.485Z,13.43
2023-04-25T02:51:39.558Z,13.77
2023-04-25T02:54:08.190Z,12.35
2023-04-25T02:56:41.328Z,13.30
2023-04-25T02:59:14.470Z,14.77
2023-04-25T03:01:42.911Z,13.10
2023-04-25T03:04:12.336Z,13.60
2023-04-25T03:06:40.890Z,13.68
2023-04-25T03:09:08.924Z,11.57
2023-04-25T03:11:37.125Z,17.50
2023-04-25T03:14:07.482Z,15.88
2023-04-25T03:16:36.108Z,17.40
2023-04-25T03:19:06.444Z,15.80
2023-04-25T03:21:37.670Z,13.13
2023-04-25T03:24:06.758Z,12.43
2023-04-25T03:26:34.788Z,12.15
2023-04-25T03:29:03.447Z,13.07
2023-04-25T03:31:32.097Z,12.75
2023-04-25T03:34:01.394Z,12.63
2023-04-25T03:36:29.605Z,11.88
2023-04-25T03:38:59.056Z,12.18
2023-04-25T03:41:27.409Z,11.30
2023-04-25T03:44:03.644Z,13.35
2023-04-25T03:46:31.886Z,11.93
2023-04-25T03:49:00.254Z,12.02
2023-04-25T03:51:41.235Z,11.90
2023-04-25T03:54:10.906Z,11.35
2023-04-25T03:56:56.339Z,12.30
2023-04-25T03:59:28.303Z,11.38
2023-04-25T04:01:56.664Z,11.02
2023-04-25T04:04:25.242Z,10.93
2023-04-25T04:06:53.983Z,10.93
2023-04-25T04:09:32.534Z,10.68
2023-04-25T04:12:03.621Z,10.63
2023-04-25T04:14:33.388Z,9.18
2023-04-25T04:17:01.528Z,9.70
2023-04-25T04:19:30.805Z,9.98
2023-04-25T04:22:14.565Z,9.15
2023-04-25T04:24:45.074Z,8.73
2023-04-25T04:27:16.009Z,7.63
2023-04-25T04:29:54.356Z,9.48
2023-04-25T04:32:35.596Z,10.23
2023-04-25T04:35:05.664Z,10.43
2023-04-25T04:37:34.753Z,12.57
2023-04-25T04:40:06.642Z,11.30
2023-04-25T04:42:43.447Z,9.70
2023-04-25T04:45:30.189Z,8.65
2023-04-25T04:48:30.058Z,9.40
2023-04-25T04:51:14.632Z,9.25
2023-04-25T04:54:03.321Z,8.95
2023-04-25T04:56:52.150Z,9.30
2023-04-25T04:59:43.023Z,10.32
2023-04-25T05:02:40.706Z,9.38
2023-04-25T05:05:25.419Z,9.55
2023-04-25T05:08:06.767Z,8.75
2023-04-25T05:10:54.475Z,7.97
2023-04-25T05:13:47.605Z,7.82
2023-04-25T05:16:39.287Z,6.90
2023-04-25T05:19:27.880Z,7.53
2023-04-25T05:22:14.390Z,6.97
2023-04-25T05:24:56.819Z,6.95
2023-04-25T05:27:45.110Z,7.18
2023-04-25T05:30:41.365Z,5.65
2023-04-25T05:33:21.972Z,6.18
2023-04-25T05:35:50.360Z,4.82
2023-04-25T05:38:18.529Z,5.00
2023-04-25T05:41:05.114Z,4.60
2023-04-25T05:43:58.352Z,5.10
2023-04-25T05:46:57.453Z,5.85
2023-04-25T05:49:46.018Z,5.28
2023-04-25T05:52:42.582Z,6.32
2023-04-25T06:01:09.949Z,5.53
2023-04-25T06:03:40.375Z,7.65
2023-04-25T06:06:08.892Z,5.70
2023-04-25T06:08:37.408Z,5.35
2023-04-25T06:11:05.722Z,5.47
2023-04-25T06:13:33.782Z,4.75
2023-04-25T06:16:02.238Z,4.13
2023-04-25T06:18:30.405Z,4.03
2023-04-25T06:20:59.978Z,4.55
2023-04-25T06:23:28.189Z,4.18
2023-04-25T06:26:08.336Z,3.33
2023-04-25T06:28:39.264Z,3.42
2023-04-25T06:31:07.365Z,3.60
2023-04-25T06:33:35.628Z,3.63
2023-04-25T06:36:06.731Z,2.95
2023-04-25T06:38:35.763Z,2.80
2023-04-25T06:41:04.405Z,2.53
2023-04-25T06:43:36.154Z,4.00
2023-04-25T06:46:13.132Z,5.22
2023-04-25T06:48:45.973Z,3.33
2023-04-25T06:51:15.524Z,2.47
2023-04-25T06:53:44.393Z,3.10
2023-04-25T06:59:15.521Z,2.78
2023-04-25T07:01:45.432Z,3.20
2023-04-25T07:04:18.516Z,3.20
2023-04-25T07:07:08.674Z,3.42
2023-04-25T07:09:51.650Z,3.20
2023-04-25T07:12:19.653Z,3.67
2023-04-25T07:14:48.025Z,3.10
2023-04-25T07:17:16.315Z,2.50
2023-04-25T07:19:44.875Z,2.72
2023-04-25T07:22:14.505Z,2.92
2023-04-25T07:24:45.483Z,2.53
2023-04-25T07:27:15.168Z,2.97
2023-04-25T07:29:56.979Z,3.42
2023-04-25T07:32:25.897Z,2.83
2023-04-25T07:34:54.083Z,3.03
2023-04-25T07:37:23.730Z,3.13
2023-04-25T07:43:06.409Z,2.72
2023-04-25T07:45:41.202Z,2.50
2023-04-25T07:48:09.298Z,2.90
2023-04-25T07:50:39.603Z,2.20
2023-04-25T07:53:09.852Z,2.65
2023-04-25T07:55:45.383Z,2.65
2023-04-25T07:58:22.347Z,2.28
2023-04-25T08:00:55.030Z,2.20
2023-04-25T08:03:39.224Z,2.55
2023-04-25T08:06:13.626Z,2.33
2023-04-25T08:08:54.271Z,1.85
2023-04-25T08:11:26.127Z,2.70
2023-04-25T08:13:54.360Z,2.75
2023-04-25T08:16:23.958Z,3.15
2023-04-25T08:18:53.426Z,4.10
2023-04-25T08:21:22.004Z,2.28
2023-04-25T08:23:50.328Z,1.83
2023-04-25T08:26:33.216Z,2.40
2023-04-25T08:29:01.458Z,2.40
2023-04-25T08:31:30.149Z,2.30
2023-04-25T08:34:01.676Z,2.20
2023-04-25T08:36:39.702Z,2.30
2023-04-25T08:39:25.707Z,1.70
2023-04-25T08:42:33.338Z,1.80
2023-04-25T08:45:07.083Z,2.28
2023-04-25T08:47:40.976Z,1.83
2023-04-25T08:50:09.613Z,2.17
2023-04-25T08:52:45.656Z,1.58
2023-04-25T08:55:15.265Z,1.70
2023-04-25T08:57:46.779Z,1.70
2023-04-25T09:00:15.783Z,1.00
2023-04-25T09:02:45.927Z,1.20
2023-04-25T09:05:16.079Z,1.48
2023-04-25T09:07:46.402Z,1.42
2023-04-25T09:10:15.749Z,1.63
2023-04-25T09:12:45.451Z,1.70
2023-04-25T09:15:20.583Z,2.10
2023-04-25T09:18:29.883Z,1.58
2023-04-25T09:21:13.093Z,2.67
2023-04-25T09:23:45.699Z,2.42
2023-04-25T09:26:17.866Z,1.80
2023-04-25T09:28:49.155Z,1.85
2023-04-25T09:31:25.298Z,1.75
2023-04-25T09:34:02.512Z,1.73
2023-04-25T09:36:37.105Z,1.60
2023-04-25T09:39:30.894Z,1.35
2023-04-25T09:42:13.190Z,1.65
2023-04-25T09:44:46.550Z,2.00
2023-04-25T09:47:17.408Z,3.30
2023-04-25T09:49:46.706Z,4.40
2023-04-25T09:52:18.012Z,1.63
2023-04-25T09:55:15.046Z,1.42
2023-04-25T09:57:43.355Z,1.65
2023-04-25T10:00:14.745Z,1.60
2023-04-25T10:02:45.838Z,1.25
2023-04-25T10:05:25.902Z,1.42
2023-04-25T10:07:55.968Z,1.63
2023-04-25T10:10:26.756Z,1.92
2023-04-25T10:12:56.062Z,1.20
2023-04-25T10:15:26.297Z,1.90
2023-04-25T10:17:54.719Z,3.42
2023-04-25T10:20:24.298Z,1.50
2023-04-25T10:22:57.293Z,1.10
2023-04-25T10:25:25.990Z,1.08
2023-04-25T10:27:54.680Z,1.00
2023-04-25T10:30:22.675Z,1.10
2023-04-25T10:32:52.785Z,1.25
2023-04-25T10:35:26.217Z,1.10
2023-04-25T10:38:02.091Z,1.30
2023-04-25T10:40:30.946Z,1.40
2023-04-25T10:43:36.178Z,1.50
2023-04-25T10:48:36.515Z,1.25
2023-04-25T10:51:11.514Z,1.50
2023-04-25T10:53:39.830Z,1.17
2023-04-25T10:56:14.576Z,1.17
2023-04-25T10:58:46.346Z,1.65
2023-04-25T11:01:15.629Z,2.90
2023-04-25T11:03:46.336Z,1.90
2023-04-25T11:06:24.634Z,1.55
2023-04-25T11:08:53.658Z,1.45
2023-04-25T11:11:22.241Z,1.42
2023-04-25T11:13:51.643Z,1.60
2023-04-25T11:16:27.569Z,1.70
2023-04-25T11:18:59.838Z,1.67
2023-04-25T11:21:28.671Z,1.80
2023-04-25T11:23:58.185Z,1.83
2023-04-25T11:26:27.345Z,1.63
2023-04-25T11:29:00.115Z,1.90
2023-04-25T11:31:28.643Z,1.83
2023-04-25T11:33:59.430Z,1.42
2023-04-25T11:36:28.519Z,1.58
2023-04-25T11:38:57.017Z,1.40
2023-04-25T11:41:25.342Z,1.85
2023-04-25T11:43:55.553Z,1.17
2023-04-25T11:46:24.378Z,1.13
2023-04-25T11:48:53.856Z,1.35
2023-04-25T11:51:23.552Z,3.30
2023-04-25T11:53:51.631Z,1.50
2023-04-25T11:56:23.747Z,1.50
2023-04-25T11:58:59.711Z,1.10
2023-04-25T12:01:43.444Z,1.20
2023-04-25T12:04:16.097Z,1.30
2023-04-25T12:06:48.981Z,1.45
2023-04-25T12:09:19.852Z,1.63
2023-04-25T12:11:49.940Z,1.42
2023-04-25T12:14:25.882Z,1.20
2023-04-25T12:16:54.106Z,1.20
2023-04-25T12:19:22.753Z,1.30
2023-04-25T12:24:26.797Z,1.20
2023-04-25T12:26:56.027Z,1.38
2023-04-25T12:29:29.473Z,1.00
2023-04-25T12:32:00.883Z,1.13
2023-04-25T12:34:29.192Z,1.48
2023-04-25T12:36:58.625Z,1.23
2023-04-25T12:39:27.226Z,1.40
2023-04-25T12:41:55.629Z,1.20
2023-04-25T12:44:23.856Z,1.90
2023-04-25T12:46:52.230Z,1.30
2023-04-25T12:49:20.563Z,1.15
2023-04-25T12:51:49.004Z,1.48
2023-04-25T12:54:19.080Z,1.13
2023-04-25T12:56:47.260Z,0.95
2023-04-25T12:59:15.518Z,1.10
2023-04-25T13:01:43.974Z,1.20
2023-04-25T13:04:12.173Z,1.70
2023-04-25T13:06:40.516Z,1.33
2023-04-25T13:09:09.555Z,1.20
2023-04-25T13:11:38.960Z,1.50
2023-04-25T13:14:07.661Z,2.17
2023-04-25T13:16:35.882Z,1.98
2023-04-25T13:19:04.153Z,1.35
2023-04-25T13:21:33.550Z,0.90
2023-04-25T13:24:01.836Z,1.02
2023-04-25T13:26:29.929Z,1.08
2023-04-25T13:28:59.356Z,1.20
2023-04-25T13:31:27.524Z,1.00
2023-04-25T13:33:55.619Z,1.13
2023-04-25T13:36:23.600Z,1.00
2023-04-25T13:38:52.049Z,0.82
2023-04-25T13:41:20.252Z,1.00
2023-04-25T13:43:49.837Z,1.83
2023-04-25T13:48:52.781Z,1.30
2023-04-25T13:51:24.001Z,1.10
2023-04-25T13:53:52.297Z,1.23
2023-04-25T13:56:21.576Z,1.35
2023-04-25T13:58:49.575Z,1.25
2023-04-25T14:01:18.970Z,2.92
2023-04-25T14:03:47.462Z,0.90
2023-04-25T14:06:22.098Z,1.20
2023-04-25T14:08:50.308Z,1.23
2023-04-25T14:11:19.247Z,1.40
2023-04-25T14:13:48.618Z,0.90
2023-04-25T14:16:17.830Z,1.27
2023-04-25T14:18:47.401Z,1.35
2023-04-25T14:21:15.440Z,1.15
2023-04-25T14:23:43.657Z,1.42
2023-04-25T14:28:54.479Z,1.38
2023-04-25T14:31:22.748Z,1.52
2023-04-25T14:33:52.516Z,1.10
2023-04-25T14:36:21.337Z,2.60
2023-04-25T14:38:49.428Z,1.63
2023-04-25T14:41:17.720Z,1.50
2023-04-25T14:43:46.050Z,1.40
2023-04-25T14:46:14.483Z,1.50
2023-04-25T14:48:42.850Z,1.05
2023-04-25T14:51:12.265Z,3.40
2023-04-25T14:53:40.655Z,1.63
2023-04-25T14:56:09.939Z,1.65
2023-04-25T14:58:38.607Z,1.20
2023-04-25T15:01:07.784Z,1.23
2023-04-25T15:03:36.349Z,1.15
2023-04-25T15:06:04.643Z,1.40
2023-04-25T15:08:34.471Z,1.02
2023-04-25T15:11:03.333Z,1.20
2023-04-25T15:13:31.406Z,1.40
2023-04-25T15:15:59.663Z,1.27
2023-04-25T15:18:27.927Z,1.35
2023-04-25T15:20:57.208Z,1.92
2023-04-25T15:23:25.985Z,1.65
2023-04-25T15:25:56.907Z,1.50
2023-04-25T15:28:24.930Z,1.75
2023-04-25T15:30:53.157Z,1.98
2023-04-25T15:33:21.339Z,2.17
2023-04-25T15:35:49.396Z,1.40
2023-04-25T15:38:17.576Z,1.95
2023-04-25T15:40:46.572Z,1.10
2023-04-25T15:43:17.290Z,1.00
2023-04-25T15:45:45.631Z,1.20
2023-04-25T15:48:14.292Z,1.42
2023-04-25T15:50:42.887Z,3.15
2023-04-25T15:53:12.312Z,5.10
2023-04-25T15:55:40.917Z,1.77
2023-04-25T15:58:10.712Z,2.17
2023-04-25T16:00:43.463Z,2.15
2023-04-25T16:03:11.661Z,1.75
2023-04-25T16:05:40.882Z,1.73
2023-04-25T16:08:09.304Z,1.83
2023-04-25T16:10:38.179Z,1.60
2023-04-25T16:13:06.303Z,1.95
2023-04-25T16:15:35.497Z,1.60
2023-04-25T16:18:05.471Z,1.70
2023-04-25T16:20:33.761Z,1.40
2023-04-25T16:23:02.143Z,1.90
2023-04-25T16:25:30.205Z,1.65
2023-04-25T16:27:58.472Z,1.83
2023-04-25T16:30:26.969Z,1.55
2023-04-25T16:32:57.107Z,1.60
2023-04-25T16:35:30.530Z,1.60
2023-04-25T16:37:58.653Z,1.70
2023-04-25T16:40:26.943Z,1.73
2023-04-25T16:42:55.167Z,1.90
2023-04-25T16:45:24.339Z,1.35
2023-04-25T16:47:52.435Z,1.35
2023-04-25T16:50:21.412Z,2.10
2023-04-25T16:52:51.175Z,1.70
2023-04-25T16:55:19.503Z,1.08
2023-04-25T16:57:47.710Z,1.73
2023-04-25T17:00:18.171Z,1.77
2023-04-25T17:02:46.349Z,1.33
2023-04-25T17:05:14.627Z,1.40
2023-04-25T17:07:42.681Z,3.92
2023-04-25T17:10:12.468Z,2.15
2023-04-25T17:12:40.744Z,1.40
2023-04-25T17:15:12.427Z,1.20
2023-04-25T17:17:40.840Z,2.38
2023-04-25T17:20:10.716Z,2.53
2023-04-25T17:22:38.901Z,1.40
2023-04-25T17:25:09.256Z,1.73
2023-04-25T17:27:38.777Z,1.90
2023-04-25T17:30:08.350Z,1.38
2023-04-25T17:32:36.838Z,1.90
2023-04-25T17:35:05.798Z,1.70
2023-04-25T17:37:33.992Z,1.90
2023-04-25T17:40:02.241Z,2.00
2023-04-25T17:42:30.453Z,1.70
2023-04-25T17:45:13.074Z,1.58
2023-04-25T17:47:41.809Z,1.70
2023-04-25T17:50:10.425Z,1.90
2023-04-25T17:52:38.688Z,1.77
2023-04-25T17:55:07.687Z,1.75
2023-04-25T17:57:35.768Z,1.90
2023-04-25T18:00:07.753Z,3.90
2023-04-25T18:02:40.406Z,2.40
2023-04-25T18:05:10.819Z,2.00
2023-04-25T18:07:39.309Z,1.40
2023-04-25T18:10:09.049Z,1.40
2023-04-25T18:12:38.233Z,1.73
2023-04-25T18:15:09.391Z,1.60
2023-04-25T18:17:40.376Z,1.52
2023-04-25T18:20:11.899Z,1.50
2023-04-25T18:22:40.365Z,1.77
2023-04-25T18:25:10.149Z,1.60
2023-04-25T18:27:38.981Z,1.65
2023-04-25T18:30:10.508Z,1.67
2023-04-25T18:32:38.940Z,1.77
2023-04-25T18:35:10.003Z,1.67
2023-04-25T18:37:40.172Z,1.90
2023-04-25T18:40:13.602Z,1.88
2023-04-25T18:42:41.999Z,1.65
2023-04-25T18:45:12.667Z,2.03
2023-04-25T18:47:40.938Z,1.73
2023-04-25T18:50:09.935Z,2.75
2023-04-25T18:52:38.399Z,1.73
2023-04-25T18:55:07.387Z,1.50
2023-04-25T18:57:36.049Z,1.98
2023-04-25T19:00:06.714Z,1.55
2023-04-25T19:02:37.918Z,1.70
2023-04-25T19:05:06.915Z,1.90
2023-04-25T19:07:35.019Z,1.80
2023-04-25T19:10:04.179Z,1.80
2023-04-25T19:12:33.429Z,1.77
2023-04-25T19:15:01.677Z,2.03
2023-04-25T19:17:30.600Z,1.55
2023-04-25T19:20:00.140Z,1.88
2023-04-25T19:22:29.613Z,1.88
2023-04-25T19:25:09.116Z,1.92
2023-04-25T19:27:38.934Z,2.45
2023-04-25T19:30:11.278Z,3.40
2023-04-25T19:32:39.824Z,2.20
2023-04-25T19:35:13.441Z,2.58
2023-04-25T19:37:46.912Z,2.10
2023-04-25T19:40:16.757Z,2.90
2023-04-25T19:42:45.504Z,3.03
2023-04-25T19:45:16.778Z,3.00
2023-04-25T19:47:44.896Z,2.90
2023-04-25T19:50:14.461Z,3.35
2023-04-25T19:52:42.876Z,3.20
2023-04-25T19:55:11.465Z,3.08
2023-04-25T19:57:39.578Z,3.50
2023-04-25T20:00:10.889Z,3.13
2023-04-25T20:02:43.453Z,3.20
2023-04-25T20:05:13.161Z,2.70
2023-04-25T20:07:42.951Z,2.03
2023-04-25T20:10:14.075Z,2.13
2023-04-25T20:15:39.600Z,2.13
2023-04-25T20:18:07.733Z,1.80
2023-04-25T20:20:36.877Z,2.40
2023-04-25T20:23:06.920Z,2.00
2023-04-25T20:25:34.980Z,2.78
2023-04-25T20:28:03.136Z,2.00
2023-04-25T20:30:32.133Z,2.40
2023-04-25T20:33:02.214Z,1.92
2023-04-25T20:35:30.425Z,2.53
2023-04-25T20:37:58.454Z,2.72
2023-04-25T20:40:28.008Z,2.33
2023-04-25T20:42:56.565Z,2.63
2023-04-25T20:45:29.968Z,2.95
2023-04-25T20:47:58.389Z,2.90
2023-04-25T20:50:27.071Z,2.60
2023-04-25T20:52:55.252Z,2.25
2023-04-25T20:55:23.288Z,2.30
2023-04-25T20:57:53.252Z,2.75
2023-04-25T21:00:27.402Z,2.22
2023-04-25T21:05:24.536Z,2.13
2023-04-25T21:07:53.376Z,1.83
2023-04-25T21:10:22.037Z,2.22
2023-04-25T21:12:51.840Z,2.65
2023-04-25T21:15:21.380Z,2.67
2023-04-25T21:17:49.761Z,2.63
2023-04-25T21:20:19.133Z,2.30
2023-04-25T21:22:52.705Z,2.20
2023-04-25T21:25:25.222Z,2.55
2023-04-25T21:27:54.372Z,3.90
2023-04-25T21:30:25.237Z,2.38
2023-04-25T21:32:53.938Z,2.92
2023-04-25T21:35:22.939Z,2.97
2023-04-25T21:37:51.724Z,2.10
2023-04-25T21:40:19.914Z,3.03
2023-04-25T21:42:51.543Z,3.05
2023-04-25T21:45:20.061Z,3.85
2023-04-25T21:47:50.639Z,2.60
2023-04-25T21:50:19.563Z,3.00
2023-04-25T21:52:48.172Z,2.83
2023-04-25T21:55:16.513Z,3.03
2023-04-25T22:00:28.581Z,3.08
2023-04-25T22:03:01.963Z,2.42
2023-04-25T22:05:30.153Z,2.67
2023-04-25T22:07:58.562Z,2.75
2023-04-25T22:10:27.069Z,2.60
2023-04-25T22:12:55.822Z,2.65
2023-04-25T22:15:24.354Z,2.88
2023-04-25T22:18:04.357Z,3.63
2023-04-25T22:20:33.181Z,2.97
2023-04-25T22:23:03.230Z,2.67
2023-04-25T22:25:31.887Z,3.55
2023-04-25T22:30:45.905Z,3.50
2023-04-25T22:33:15.336Z,3.20
2023-04-25T22:35:43.651Z,2.60
2023-04-25T22:38:11.662Z,2.53
2023-04-25T22:40:40.190Z,2.92
2023-04-25T22:43:08.163Z,2.67
2023-04-25T22:45:36.985Z,2.60
2023-04-25T22:48:05.706Z,2.75
2023-04-25T22:50:35.623Z,2.55
2023-04-25T22:53:05.169Z,2.97
2023-04-25T22:55:37.793Z,2.88
2023-04-25T23:01:11.421Z,3.00
2023-04-25T23:03:40.056Z,3.40
2023-04-25T23:06:09.797Z,2.25
2023-04-25T23:08:38.039Z,3.40
2023-04-25T23:11:07.891Z,2.25
2023-04-25T23:13:36.722Z,3.00
2023-04-25T23:16:08.989Z,2.95
2023-04-25T23:18:37.326Z,2.60
2023-04-25T23:21:07.573Z,3.08
2023-04-25T23:23:37.965Z,3.35
2023-04-25T23:26:09.799Z,2.40
2023-04-25T23:28:41.500Z,2.83
2023-04-25T23:31:11.846Z,3.75
2023-04-25T23:33:40.433Z,3.30
2023-04-25T23:36:09.316Z,3.47
2023-04-25T23:38:38.872Z,2.70
2023-04-25T23:41:06.925Z,3.35
2023-04-25T23:43:34.927Z,2.88
2023-04-25T23:46:03.126Z,2.78
2023-04-25T23:48:31.292Z,3.17
2023-04-25T23:51:00.814Z,3.15
2023-04-25T23:53:29.356Z,3.22
2023-04-25T23:55:58.739Z,3.47
2023-04-25T23:58:26.801Z,2.80
